createdAt,value
2017-03-02T00:01:37.778Z,87.65
2017-03-02T00:04:01.042Z,87.6
2017-03-02T00:06:24.302Z,86.94
2017-03-02T00:08:47.565Z,87.6
2017-03-02T00:10:48.710Z,87.03
2017-03-02T00:13:12.996Z,87.79
2017-03-02T00:15:36.259Z,87.13
2017-03-02T00:17:59.520Z,86.94
2017-03-02T00:21:58.524Z,87.32
2017-03-02T00:24:21.794Z,87.6
2017-03-02T00:26:45.060Z,87.03
2017-03-02T00:29:08.321Z,87.41
2017-03-02T00:31:31.581Z,88.27
2017-03-02T00:33:32.754Z,88.37
2017-03-02T00:35:55.988Z,88.93
2017-03-02T00:38:20.042Z,88.75
2017-03-02T00:40:34.960Z,89.03
2017-03-02T00:42:58.198Z,88.46
2017-03-02T00:45:21.457Z,88.65
2017-03-02T00:47:44.732Z,88.46
2017-03-02T00:50:07.984Z,87.89
2017-03-02T00:52:31.246Z,88.27
2017-03-02T00:54:54.510Z,87.51
2017-03-02T00:57:17.768Z,87.79
2017-03-02T00:59:32.535Z,87.79
2017-03-02T01:01:55.797Z,87.89
2017-03-02T01:04:19.062Z,88.18
2017-03-02T01:06:42.324Z,88.27
2017-03-02T01:12:08.711Z,87.6
2017-03-02T01:14:32.049Z,87.6
2017-03-02T01:18:31.076Z,87.51
2017-03-02T01:20:54.433Z,87.6
2017-03-02T01:23:17.791Z,87.13
2017-03-02T01:25:41.053Z,87.79
2017-03-02T01:28:04.314Z,87.89
2017-03-02T01:30:28.604Z,87.7
2017-03-02T01:32:51.867Z,88.08
2017-03-02T01:35:15.125Z,87.89
2017-03-02T01:39:00.478Z,87.41
2017-03-02T01:41:23.778Z,87.79
2017-03-02T01:43:24.943Z,87.41
2017-03-02T01:45:48.288Z,87.65
2017-03-02T01:49:47.406Z,86.51
2017-03-02T01:52:02.370Z,86.6
2017-03-02T01:54:25.739Z,86.51
2017-03-02T01:56:40.702Z,86.88
2017-03-02T01:58:41.838Z,86.79
2017-03-02T02:01:05.215Z,87.46
2017-03-02T02:03:06.297Z,87.36
2017-03-02T02:05:29.618Z,87.51
2017-03-02T02:07:52.881Z,87.93
2017-03-02T02:10:07.746Z,88.27
2017-03-02T02:12:22.618Z,89.13
2017-03-02T02:14:45.873Z,88.56
2017-03-02T02:18:44.884Z,88.98
2017-03-02T02:20:45.993Z,89.41
2017-03-02T02:23:09.290Z,88.65
2017-03-02T02:27:08.407Z,89.03
2017-03-02T02:29:31.667Z,89.32
2017-03-02T02:31:46.535Z,89.41
2017-03-02T02:34:09.788Z,89.98
2017-03-02T02:36:16.255Z,90.46
2017-03-02T02:38:39.526Z,90.94
2017-03-02T02:40:32.261Z,90.36
2017-03-02T02:42:55.535Z,90.94
2017-03-02T02:45:18.797Z,90.17
2017-03-02T02:47:42.058Z,90.36
2017-03-02T02:49:56.927Z,90.56
2017-03-02T02:52:20.191Z,88.56
2017-03-02T02:54:43.452Z,87.13
2017-03-02T02:57:06.722Z,86.18
2017-03-02T03:00:43.588Z,83.22
2017-03-02T03:03:06.978Z,83.03
2017-03-02T03:05:08.120Z,82.93
2017-03-02T03:07:31.478Z,81.79
2017-03-02T03:09:41.092Z,81.41
2017-03-02T03:12:04.385Z,79.89
2017-03-02T03:14:14.070Z,79.7
2017-03-02T03:16:15.157Z,78.65
2017-03-02T03:18:38.434Z,76.46
2017-03-02T03:21:01.699Z,76.27
2017-03-02T03:23:24.960Z,76.08
2017-03-02T03:25:48.221Z,75.13
2017-03-02T03:28:11.488Z,75.57
2017-03-02T03:30:12.632Z,75.42
2017-03-02T03:32:35.889Z,75.47
2017-03-02T03:34:59.157Z,75.04
2017-03-02T03:37:22.416Z,74.04
2017-03-02T03:39:45.679Z,74.46
2017-03-02T03:42:08.938Z,74.99
2017-03-02T03:44:32.199Z,73.38
2017-03-02T03:46:46.968Z,73.76
2017-03-02T03:49:10.230Z,73.38
2017-03-02T03:51:34.486Z,73.38
2017-03-02T03:53:49.396Z,73.38
2017-03-02T03:55:50.553Z,73.57
2017-03-02T03:58:05.388Z,73.85
2017-03-02T04:00:20.250Z,73.85
2017-03-02T04:02:29.855Z,74.24
2017-03-02T04:04:53.058Z,74.37
2017-03-02T04:07:16.323Z,74.99
2017-03-02T04:09:40.506Z,74.43
2017-03-02T04:12:03.668Z,74.8
2017-03-02T04:14:13.267Z,75.09
2017-03-02T04:16:36.573Z,74.8
2017-03-02T04:18:59.837Z,75.76
2017-03-02T04:21:23.098Z,75.67
2017-03-02T04:23:24.210Z,75.76
2017-03-02T04:25:25.296Z,75.85
2017-03-02T04:27:48.543Z,75.76
2017-03-02T04:33:23.265Z,73.76
2017-03-02T04:35:46.566Z,72.9
2017-03-02T04:38:09.827Z,72.14
2017-03-02T04:40:10.980Z,72.14
2017-03-02T04:42:34.190Z,71.86
2017-03-02T04:44:57.499Z,71.19
2017-03-02T04:47:20.752Z,70.77
2017-03-02T04:49:44.017Z,70.72
2017-03-02T04:53:43.160Z,69.85
2017-03-02T04:56:07.361Z,69.82
2017-03-02T04:58:30.598Z,69.25
2017-03-02T05:00:53.842Z,69.1
2017-03-02T05:04:52.841Z,69.06
2017-03-02T05:07:07.717Z,68.11
2017-03-02T05:11:06.728Z,68.43
2017-03-02T05:13:29.986Z,68.4
2017-03-02T05:15:53.245Z,67.63
2017-03-02T05:21:11.178Z,67.07
2017-03-02T05:23:34.474Z,67.47
2017-03-02T05:25:40.942Z,67.44
2017-03-02T05:28:04.098Z,67.44
2017-03-02T05:30:18.865Z,66.39
2017-03-02T05:32:25.353Z,65.16
2017-03-02T05:34:48.598Z,65.29
2017-03-02T05:37:11.864Z,64.62
2017-03-02T05:39:35.120Z,64.43
2017-03-02T05:41:44.749Z,64.11
2017-03-02T05:43:37.549Z,64.69
2017-03-02T05:46:00.878Z,64.4
2017-03-02T05:48:24.140Z,65.25
2017-03-02T05:50:25.843Z,64.81
2017-03-02T05:52:49.068Z,65.38
2017-03-02T05:55:03.818Z,64.78
2017-03-02T05:59:02.841Z,65.64
2017-03-02T06:01:17.702Z,64.97
2017-03-02T06:03:40.956Z,65.64
2017-03-02T06:06:04.227Z,66.11
2017-03-02T06:08:27.485Z,66.39
2017-03-02T06:10:28.606Z,66.2
2017-03-02T06:14:28.947Z,64.69
2017-03-02T06:16:51.308Z,64.87
2017-03-02T06:19:14.574Z,63.73
2017-03-02T06:21:37.848Z,64.11
2017-03-02T06:24:01.106Z,63.64
2017-03-02T06:26:24.270Z,63.54
2017-03-02T06:28:47.525Z,64.05
2017-03-02T06:30:48.636Z,64.31
2017-03-02T06:32:55.141Z,64.4
2017-03-02T06:35:18.401Z,64.11
2017-03-02T06:37:41.664Z,63.57
2017-03-02T06:40:04.947Z,64.05
2017-03-02T06:44:03.937Z,62.97
2017-03-02T06:46:27.200Z,63.86
2017-03-02T06:48:50.458Z,62.91
2017-03-02T06:50:51.596Z,61.96
2017-03-02T06:53:14.872Z,61.38
2017-03-02T06:55:38.127Z,61.51
2017-03-02T06:57:44.609Z,60.63
2017-03-02T07:00:07.860Z,59.8
2017-03-02T07:02:31.126Z,59.7
2017-03-02T07:04:54.387Z,60.15
2017-03-02T07:07:17.649Z,61.38
2017-03-02T07:09:40.911Z,60.24
2017-03-02T07:12:04.177Z,60.37
2017-03-02T07:14:27.436Z,58.84
2017-03-02T07:16:42.414Z,53.69
2017-03-02T07:19:05.779Z,51.14
2017-03-02T07:21:29.248Z,50.92
2017-03-02T07:23:52.717Z,50.59
2017-03-02T07:26:07.789Z,43.52
2017-03-02T07:28:31.365Z,40.75
2017-03-02T07:30:55.144Z,36.13
2017-03-02T07:33:19.029Z,37.97
2017-03-02T07:35:42.913Z,40.09
2017-03-02T07:39:28.500Z,35.1
2017-03-02T07:41:52.599Z,33.35
2017-03-02T07:44:16.570Z,36.3
2017-03-02T07:46:40.557Z,32.03
2017-03-02T07:49:04.635Z,33.73
2017-03-02T07:51:28.717Z,37.7
2017-03-02T07:53:44.222Z,40.38
2017-03-02T07:56:08.185Z,42.11
2017-03-02T07:58:32.014Z,41.75
2017-03-02T08:00:55.916Z,46.18
2017-03-02T08:02:57.968Z,47.42
2017-03-02T08:05:21.659Z,40.86
2017-03-02T08:07:45.363Z,39.62
2017-03-02T08:09:46.643Z,33.39
2017-03-02T08:12:10.477Z,36.9
2017-03-02T08:14:34.382Z,32.54
2017-03-02T08:16:58.303Z,33.48
2017-03-02T08:19:22.311Z,26.43
2017-03-02T08:21:23.666Z,31.49
2017-03-02T08:23:47.793Z,31.24
2017-03-02T08:26:11.861Z,35.06
2017-03-02T08:28:35.877Z,35.28
2017-03-02T08:30:59.864Z,39
2017-03-02T08:33:23.768Z,41.64
2017-03-02T08:35:39.189Z,41.45
2017-03-02T08:38:02.957Z,37.59
2017-03-02T08:40:26.646Z,39.48
2017-03-02T08:42:50.332Z,40.72
2017-03-02T08:45:14.082Z,38.6
2017-03-02T08:47:37.793Z,41.45
2017-03-02T08:50:01.470Z,42.79
2017-03-02T08:52:25.127Z,41.71
2017-03-02T08:54:48.756Z,42.96
2017-03-02T09:00:23.923Z,42.29
2017-03-02T09:02:25.212Z,42
2017-03-02T09:04:48.767Z,41.35
2017-03-02T09:07:12.375Z,40.23
2017-03-02T09:09:35.963Z,39.56
2017-03-02T09:11:59.572Z,40.11
2017-03-02T09:14:23.189Z,39.83
2017-03-02T09:16:32.923Z,40.78
2017-03-02T09:18:56.535Z,39.83
2017-03-02T09:21:11.722Z,38.6
2017-03-02T09:23:35.322Z,37.93
2017-03-02T09:25:50.516Z,37.95
2017-03-02T09:28:14.143Z,40.26
2017-03-02T09:30:37.696Z,41.05
2017-03-02T09:33:01.272Z,41.5
2017-03-02T09:35:24.809Z,40.57
2017-03-02T09:37:48.340Z,39.92
2017-03-02T09:40:11.933Z,40.76
2017-03-02T09:42:35.395Z,41.98
2017-03-02T09:44:58.896Z,42.27
2017-03-02T09:47:13.978Z,42.74
2017-03-02T09:49:29.037Z,42.84
2017-03-02T09:51:44.089Z,42.65
2017-03-02T09:53:59.131Z,43.01
2017-03-02T09:56:22.560Z,44.53
2017-03-02T09:58:46.993Z,44.25
2017-03-02T10:01:10.419Z,42.63
2017-03-02T10:03:25.448Z,42.91
2017-03-02T10:05:48.884Z,41.79
2017-03-02T10:08:12.280Z,41.81
2017-03-02T10:10:27.346Z,40.95
2017-03-02T10:12:50.791Z,42.08
2017-03-02T10:15:00.464Z,41.69
2017-03-02T10:17:23.933Z,41.71
2017-03-02T10:19:33.595Z,41.98
2017-03-02T10:21:48.666Z,41.67
2017-03-02T10:24:12.104Z,41.6
2017-03-02T10:26:27.138Z,41.03
2017-03-02T10:28:50.574Z,41.03
2017-03-02T10:31:14.004Z,40.36
2017-03-02T10:33:29.073Z,40.17
2017-03-02T10:35:52.514Z,38.95
2017-03-02T10:37:53.703Z,37.34
2017-03-02T10:40:17.216Z,39.32
2017-03-02T10:42:40.652Z,40.09
2017-03-02T10:45:04.117Z,39.78
2017-03-02T10:47:27.525Z,38.37
2017-03-02T10:49:50.926Z,37.9
2017-03-02T10:52:00.621Z,37.99
2017-03-02T10:54:15.750Z,37.99
2017-03-02T10:56:39.280Z,37.63
2017-03-02T10:59:02.803Z,37.99
2017-03-02T11:01:26.301Z,37.61
2017-03-02T11:03:49.811Z,38.09
2017-03-02T11:06:13.311Z,38.2
2017-03-02T11:10:12.557Z,38.09
2017-03-02T11:12:36.086Z,37.82
2017-03-02T11:14:59.588Z,37.63
2017-03-02T11:17:23.059Z,37.63
2017-03-02T11:19:46.548Z,37.71
2017-03-02T11:22:10.042Z,38.85
2017-03-02T11:24:25.111Z,38.26
2017-03-02T11:26:48.615Z,37.61
2017-03-02T11:30:47.866Z,38.18
2017-03-02T11:33:11.354Z,38.76
2017-03-02T11:35:34.860Z,39.31
2017-03-02T11:37:49.884Z,39.59
2017-03-02T11:40:13.322Z,37.9
2017-03-02T11:42:37.627Z,37.34
2017-03-02T11:45:00.236Z,37.05
2017-03-02T11:48:37.197Z,36.44
2017-03-02T11:50:38.451Z,36.08
2017-03-02T11:52:39.654Z,35.89
2017-03-02T11:54:54.775Z,35.62
2017-03-02T11:57:18.275Z,35.89
2017-03-02T11:59:41.788Z,35.99
2017-03-02T12:01:56.849Z,36.1
2017-03-02T12:04:20.323Z,36.75
2017-03-02T12:06:43.794Z,36.75
2017-03-02T12:09:07.260Z,36.08
2017-03-02T12:11:30.722Z,35.33
2017-03-02T12:13:54.195Z,35.32
2017-03-02T12:16:18.413Z,36.29
2017-03-02T12:18:41.217Z,36.87
2017-03-02T12:21:04.694Z,36.64
2017-03-02T12:23:28.195Z,36.37
2017-03-02T12:27:27.447Z,35.72
2017-03-02T12:29:28.611Z,35.72
2017-03-02T12:31:52.048Z,35.14
2017-03-02T12:34:15.526Z,34.77
2017-03-02T12:36:38.997Z,35.03
2017-03-02T12:40:38.653Z,34.65
2017-03-02T12:43:02.151Z,34.38
2017-03-02T12:45:26.441Z,34.27
2017-03-02T12:47:49.079Z,35.03
2017-03-02T12:50:12.533Z,35.8
2017-03-02T12:52:36.021Z,35.8
2017-03-02T12:54:59.497Z,36.1
2017-03-02T12:57:22.939Z,35.72
2017-03-02T12:59:15.720Z,36
2017-03-02T13:01:30.828Z,35.89
2017-03-02T13:03:33.205Z,36.37
2017-03-02T13:05:48.340Z,35.99
2017-03-02T13:08:11.813Z,36
2017-03-02T13:10:36.058Z,35.43
2017-03-02T13:12:59.545Z,36.56
2017-03-02T13:15:14.635Z,35.62
2017-03-02T13:17:38.133Z,36.98
2017-03-02T13:20:01.626Z,37.26
2017-03-02T13:22:25.117Z,36.79
2017-03-02T13:24:48.645Z,36.68
2017-03-02T13:27:12.158Z,36.1
2017-03-02T13:29:35.699Z,36.19
2017-03-02T13:31:36.892Z,35.43
2017-03-02T13:34:00.428Z,35.51
2017-03-02T13:36:24.822Z,35.53
2017-03-02T13:38:48.323Z,34.88
2017-03-02T13:41:11.803Z,34.69
2017-03-02T13:43:13.103Z,34.4
2017-03-02T13:45:36.625Z,34.2
2017-03-02T13:48:00.119Z,34.59
2017-03-02T13:50:23.623Z,34.95
2017-03-02T13:52:38.726Z,35.91
2017-03-02T13:55:02.233Z,35.82
2017-03-02T13:57:25.676Z,35.82
2017-03-02T13:59:35.424Z,35.33
2017-03-02T14:01:51.531Z,35.82
2017-03-02T14:04:15.029Z,36.66
2017-03-02T14:06:38.479Z,37.51
2017-03-02T14:09:01.931Z,37.8
2017-03-02T14:11:26.181Z,36.56
2017-03-02T14:13:49.615Z,36.1
2017-03-02T14:16:13.060Z,35.82
2017-03-02T14:18:36.522Z,35.43
2017-03-02T14:20:59.917Z,34.75
2017-03-02T14:23:23.376Z,34.65
2017-03-02T14:25:46.820Z,34.17
2017-03-02T14:28:01.874Z,33.5
2017-03-02T14:30:25.335Z,33.79
2017-03-02T14:32:40.393Z,33.7
2017-03-02T14:35:03.848Z,34.75
2017-03-02T14:37:27.316Z,34.65
2017-03-02T14:39:28.500Z,34.08
2017-03-02T14:41:51.975Z,34.27
2017-03-02T14:44:15.431Z,33.71
2017-03-02T14:46:38.868Z,33.81
2017-03-02T14:48:40.037Z,34.19
2017-03-02T14:51:03.498Z,33.91
2017-03-02T14:53:26.974Z,33.23
2017-03-02T14:55:50.446Z,34.38
2017-03-02T14:58:13.905Z,33.62
2017-03-02T15:00:37.346Z,33.14
2017-03-02T15:03:00.802Z,33.23
2017-03-02T15:05:15.850Z,33.33
2017-03-02T15:07:39.331Z,32.36
2017-03-02T15:10:02.781Z,33.31
2017-03-02T15:12:03.943Z,32.55
2017-03-02T15:14:27.408Z,32.45
2017-03-02T15:16:50.867Z,32.17
2017-03-02T15:19:15.227Z,32.36
2017-03-02T15:21:38.711Z,31.6
2017-03-02T15:24:02.203Z,32.06
2017-03-02T15:27:53.726Z,31.96
2017-03-02T15:30:16.425Z,32.34
2017-03-02T15:32:40.726Z,32.74
2017-03-02T15:35:03.281Z,32.45
2017-03-02T15:37:26.723Z,32.17
2017-03-02T15:39:27.907Z,32.26
2017-03-02T15:41:51.360Z,31.96
2017-03-02T15:44:14.806Z,32.34
2017-03-02T15:48:13.982Z,32.82
2017-03-02T15:52:13.205Z,33.2
2017-03-02T15:54:36.620Z,32.82
2017-03-02T15:56:51.602Z,32.34
2017-03-02T15:59:14.992Z,32.73
2017-03-02T16:01:38.353Z,32.15
2017-03-02T16:03:32.217Z,32.24
2017-03-02T16:05:24.988Z,32.06
2017-03-02T16:07:39.997Z,31.48
2017-03-02T16:10:03.396Z,31.77
2017-03-02T16:12:18.389Z,31.2
2017-03-02T16:14:41.766Z,31.76
2017-03-02T16:17:05.148Z,31.2
2017-03-02T16:19:20.132Z,31.76
2017-03-02T16:21:21.294Z,31.76
2017-03-02T16:23:44.691Z,31.18
2017-03-02T16:26:08.083Z,31.66
2017-03-02T16:28:31.517Z,31.56
2017-03-02T16:30:54.943Z,32.23
2017-03-02T16:33:18.300Z,32.14
2017-03-02T16:35:41.680Z,32.04
2017-03-02T16:38:05.010Z,32.32
2017-03-02T16:40:28.389Z,32.32
2017-03-02T16:42:51.768Z,32.52
2017-03-02T16:45:15.107Z,33.57
2017-03-02T16:47:38.463Z,33.47
2017-03-02T16:49:39.598Z,33.76
2017-03-02T16:52:02.971Z,33.95
2017-03-02T16:54:26.357Z,33.57
2017-03-02T16:56:49.713Z,33.93
2017-03-02T16:59:13.046Z,34.22
2017-03-02T17:01:36.342Z,34.79
2017-03-02T17:03:59.688Z,35.08
2017-03-02T17:06:23.005Z,34.69
2017-03-02T17:08:46.278Z,35.36
2017-03-02T17:10:39.032Z,34.88
2017-03-02T17:13:02.395Z,35.27
2017-03-02T17:15:25.711Z,35.74
2017-03-02T17:17:49.034Z,35.84
2017-03-02T17:20:12.268Z,35.84
2017-03-02T17:22:36.326Z,35.64
2017-03-02T17:24:59.573Z,36.51
2017-03-02T17:27:22.843Z,36.69
2017-03-02T17:29:46.145Z,37.15
2017-03-02T17:31:55.821Z,37.54
2017-03-02T17:34:19.115Z,37.63
2017-03-02T17:38:18.159Z,38.01
2017-03-02T17:40:41.485Z,38.49
2017-03-02T17:43:04.780Z,38.49
2017-03-02T17:45:05.953Z,38.49
2017-03-02T17:47:29.276Z,38.87
2017-03-02T17:49:52.556Z,39.53
2017-03-02T17:52:07.440Z,38.58
2017-03-02T17:54:30.715Z,39.34
2017-03-02T17:56:40.351Z,39.15
2017-03-02T17:59:03.677Z,39.92
2017-03-02T18:01:26.966Z,39.73
2017-03-02T18:03:50.258Z,40.01
2017-03-02T18:06:13.547Z,40.11
2017-03-02T18:08:36.846Z,39.82
2017-03-02T18:10:46.484Z,40.11
2017-03-02T18:12:47.601Z,40.48
2017-03-02T18:15:02.527Z,40.87
2017-03-02T18:17:17.561Z,41.35
2017-03-02T18:19:40.982Z,40.77
2017-03-02T18:21:55.876Z,41.16
2017-03-02T18:24:19.117Z,40.87
2017-03-02T18:26:42.381Z,40.58
2017-03-02T18:28:57.255Z,40.97
2017-03-02T18:31:20.481Z,41.25
2017-03-02T18:33:35.354Z,41.63
2017-03-02T18:35:58.638Z,40.97
2017-03-02T18:38:21.922Z,41.06
2017-03-02T18:40:23.076Z,41.25
2017-03-02T18:42:46.376Z,40.87
2017-03-02T18:45:09.626Z,40.87
2017-03-02T18:47:32.873Z,41.63
2017-03-02T18:49:58.143Z,41.44
2017-03-02T18:52:21.424Z,41.44
2017-03-02T18:54:44.615Z,41.8
2017-03-02T18:57:07.876Z,41.8
2017-03-02T18:59:31.130Z,42.11
2017-03-02T19:01:46.007Z,41.52
2017-03-02T19:04:09.216Z,41.8
2017-03-02T19:06:32.476Z,42.28
2017-03-02T19:08:55.742Z,42.66
2017-03-02T19:11:18.988Z,43.13
2017-03-02T19:13:42.209Z,43.23
2017-03-02T19:16:05.528Z,43.13
2017-03-02T19:18:20.497Z,43.13
2017-03-02T19:20:43.761Z,43.8
2017-03-02T19:23:07.035Z,43.8
2017-03-02T19:25:30.396Z,43.32
2017-03-02T19:27:53.757Z,43.23
2017-03-02T19:30:17.015Z,43.13
2017-03-02T19:32:26.691Z,43.13
2017-03-02T19:34:50.027Z,43.04
2017-03-02T19:37:04.894Z,43.04
2017-03-02T19:39:19.753Z,43.13
2017-03-02T19:41:42.942Z,43.32
2017-03-02T19:44:06.194Z,43.87
2017-03-02T19:46:29.537Z,44.27
2017-03-02T19:48:44.411Z,43.8
2017-03-02T19:51:07.682Z,44.45
2017-03-02T19:53:30.932Z,44.82
2017-03-02T19:55:32.050Z,44.56
2017-03-02T19:57:55.347Z,44.27
2017-03-02T20:00:10.168Z,44.85
2017-03-02T20:02:33.477Z,44.37
2017-03-02T20:04:56.629Z,44.46
2017-03-02T20:07:19.892Z,44.27
2017-03-02T20:09:43.149Z,44.18
2017-03-02T20:12:06.418Z,44.09
2017-03-02T20:14:30.007Z,44.37
2017-03-02T20:16:39.663Z,45.32
2017-03-02T20:19:02.989Z,45.04
2017-03-02T20:21:26.259Z,45.42
2017-03-02T20:23:49.522Z,44.56
2017-03-02T20:26:12.797Z,45.23
2017-03-02T20:28:36.047Z,45.7
2017-03-02T20:30:59.299Z,45.8
2017-03-02T20:33:22.505Z,46.25
2017-03-02T20:35:45.741Z,46.37
2017-03-02T20:38:08.995Z,46.28
2017-03-02T20:40:32.248Z,47.11
2017-03-02T20:42:55.476Z,47.3
2017-03-02T20:45:18.787Z,47.87
2017-03-02T20:47:42.140Z,48.25
2017-03-02T20:50:05.424Z,48.73
2017-03-02T20:52:28.681Z,48.44
2017-03-02T20:54:51.935Z,48.63
2017-03-02T20:57:15.202Z,48.82
2017-03-02T20:59:38.460Z,49.11
2017-03-02T21:01:48.087Z,48.35
2017-03-02T21:04:11.373Z,48.06
2017-03-02T21:06:34.628Z,48.44
2017-03-02T21:08:57.886Z,48.06
2017-03-02T21:11:21.159Z,48.25
2017-03-02T21:13:36.023Z,48.25
2017-03-02T21:15:59.292Z,48.35
2017-03-02T21:18:14.149Z,47.87
2017-03-02T21:20:37.439Z,48.16
2017-03-02T21:22:30.181Z,48.35
2017-03-02T21:24:53.520Z,48.16
2017-03-02T21:27:08.377Z,48.06
2017-03-02T21:29:31.645Z,48.25
2017-03-02T21:31:41.268Z,48.25
2017-03-02T21:33:42.373Z,48.25
2017-03-02T21:36:17.052Z,48.25
2017-03-02T21:38:40.750Z,48.06
2017-03-02T21:40:55.720Z,48.82
2017-03-02T21:43:18.962Z,49.68
2017-03-02T21:45:42.222Z,49.2
2017-03-02T21:48:05.496Z,49.3
2017-03-02T21:50:07.390Z,49.3
2017-03-02T21:52:30.725Z,48.54
2017-03-02T21:54:45.614Z,48.16
2017-03-02T21:57:00.451Z,48.25
2017-03-02T21:59:15.315Z,48.25
2017-03-02T22:01:38.574Z,47.78
2017-03-02T22:04:03.375Z,48.06
2017-03-02T22:06:26.644Z,48.44
2017-03-02T22:08:49.908Z,49.01
2017-03-02T22:10:59.616Z,49.3
2017-03-02T22:13:22.801Z,49.65
2017-03-02T22:15:46.059Z,49.96
2017-03-02T22:18:09.341Z,49.85
2017-03-02T22:20:10.445Z,49.94
2017-03-02T22:22:33.735Z,49.56
2017-03-02T22:24:57.006Z,50.04
2017-03-02T22:27:20.269Z,49.58
2017-03-02T22:29:43.528Z,49.4
2017-03-02T22:32:06.793Z,49.2
2017-03-02T22:34:29.968Z,49.2
2017-03-02T22:36:53.215Z,49.11
2017-03-02T22:39:17.512Z,49.2
2017-03-02T22:41:40.769Z,48.63
2017-03-02T22:44:04.043Z,48.92
2017-03-02T22:46:27.279Z,49.3
2017-03-02T22:48:42.043Z,48.82
2017-03-02T22:51:05.309Z,49.01
2017-03-02T22:55:04.397Z,48.35
2017-03-02T22:57:27.692Z,48.44
2017-03-02T22:59:42.556Z,48.25
2017-03-02T23:01:43.665Z,48.54
2017-03-02T23:04:06.958Z,48.99
2017-03-02T23:06:30.217Z,48.82
2017-03-02T23:08:53.476Z,49.01
2017-03-02T23:11:08.347Z,49.01
2017-03-02T23:13:31.501Z,48.35
2017-03-02T23:15:54.635Z,48.9
2017-03-02T23:18:09.447Z,49.77
2017-03-02T23:20:32.585Z,49.11
2017-03-02T23:22:33.675Z,49.3
2017-03-02T23:24:56.897Z,49.01
2017-03-02T23:27:20.163Z,49.01
2017-03-02T23:29:43.315Z,49.49
2017-03-02T23:32:06.478Z,49.2
2017-03-02T23:34:29.611Z,48.92
2017-03-02T23:36:52.803Z,49.4
2017-03-02T23:39:16.059Z,48.92
2017-03-02T23:41:39.329Z,48.92
2017-03-02T23:44:02.588Z,49.01
2017-03-02T23:46:25.849Z,49.11
2017-03-02T23:48:49.109Z,48.92
2017-03-02T23:51:12.366Z,48.82
2017-03-02T23:53:35.560Z,48.63
2017-03-02T23:55:58.800Z,48.25
2017-03-02T23:58:21.950Z,48.82
